sensor_id;sensor_type;location;lat;lon;timestamp;temperature;humidity
34542;DHT22;20784;51.332;12.410;2022-11-22T00:01:04;0.60;99.90
34542;DHT22;20784;51.332;12.410;2022-11-22T00:03:30;0.60;99.90
34542;DHT22;20784;51.332;12.410;2022-11-22T00:05:58;0.60;99.90
34542;DHT22;20784;51.332;12.410;2022-11-22T00:08:24;0.60;99.90
34542;DHT22;20784;51.332;12.410;2022-11-22T00:10:50;0.60;99.90
34542;DHT22;20784;51.332;12.410;2022-11-22T00:13:19;0.70;99.90
34542;DHT22;20784;51.332;12.410;2022-11-22T00:15:59;0.70;99.90
34542;DHT22;20784;51.332;12.410;2022-11-22T00:18:26;0.70;99.90
34542;DHT22;20784;51.332;12.410;2022-11-22T00:20:52;0.60;99.90
34542;DHT22;20784;51.332;12.410;2022-11-22T00:23:18;0.60;99.90
34542;DHT22;20784;51.332;12.410;2022-11-22T00:25:44;0.70;99.90
34542;DHT22;20784;51.332;12.410;2022-11-22T00:28:10;0.60;99.90
34542;DHT22;20784;51.332;12.410;2022-11-22T00:30:36;0.50;99.90
34542;DHT22;20784;51.332;12.410;2022-11-22T00:33:02;0.60;99.90
34542;DHT22;20784;51.332;12.410;2022-11-22T00:35:30;0.60;99.90
34542;DHT22;20784;51.332;12.410;2022-11-22T00:37:58;0.70;99.90
34542;DHT22;20784;51.332;12.410;2022-11-22T00:40:24;0.70;99.90
34542;DHT22;20784;51.332;12.410;2022-11-22T00:42:50;0.70;99.90
34542;DHT22;20784;51.332;12.410;2022-11-22T00:45:15;0.70;99.90
34542;DHT22;20784;51.332;12.410;2022-11-22T00:47:41;0.60;99.90
34542;DHT22;20784;51.332;12.410;2022-11-22T00:50:08;0.50;99.90
34542;DHT22;20784;51.332;12.410;2022-11-22T00:52:33;0.50;99.90
34542;DHT22;20784;51.332;12.410;2022-11-22T00:54:59;0.50;99.90
34542;DHT22;20784;51.332;12.410;2022-11-22T00:57:25;0.50;99.90
34542;DHT22;20784;51.332;12.410;2022-11-22T00:59:53;0.50;99.90
34542;DHT22;20784;51.332;12.410;2022-11-22T01:02:18;0.50;99.90
34542;DHT22;20784;51.332;12.410;2022-11-22T01:04:45;0.50;99.90
34542;DHT22;20784;51.332;12.410;2022-11-22T01:07:10;0.40;99.90
34542;DHT22;20784;51.332;12.410;2022-11-22T01:09:36;0.50;99.90
34542;DHT22;20784;51.332;12.410;2022-11-22T01:12:02;0.50;99.90
34542;DHT22;20784;51.332;12.410;2022-11-22T01:14:27;0.50;99.90
34542;DHT22;20784;51.332;12.410;2022-11-22T01:16:53;0.50;99.90
34542;DHT22;20784;51.332;12.410;2022-11-22T01:19:19;0.40;99.90
34542;DHT22;20784;51.332;12.410;2022-11-22T01:21:54;0.40;99.90
34542;DHT22;20784;51.332;12.410;2022-11-22T01:24:19;0.50;99.90
34542;DHT22;20784;51.332;12.410;2022-11-22T01:26:45;0.50;99.90
34542;DHT22;20784;51.332;12.410;2022-11-22T01:29:11;0.50;99.90
34542;DHT22;20784;51.332;12.410;2022-11-22T01:31:36;0.50;99.90
34542;DHT22;20784;51.332;12.410;2022-11-22T01:34:11;0.60;99.90
34542;DHT22;20784;51.332;12.410;2022-11-22T01:36:37;0.60;99.90
34542;DHT22;20784;51.332;12.410;2022-11-22T01:39:03;0.70;99.90
34542;DHT22;20784;51.332;12.410;2022-11-22T01:41:29;0.70;99.90
34542;DHT22;20784;51.332;12.410;2022-11-22T01:43:54;0.80;99.90
34542;DHT22;20784;51.332;12.410;2022-11-22T01:46:33;0.80;99.90
34542;DHT22;20784;51.332;12.410;2022-11-22T01:49:13;0.80;99.90
34542;DHT22;20784;51.332;12.410;2022-11-22T01:51:43;0.90;99.90
34542;DHT22;20784;51.332;12.410;2022-11-22T01:54:15;0.80;99.90
34542;DHT22;20784;51.332;12.410;2022-11-22T01:56:47;0.90;99.90
34542;DHT22;20784;51.332;12.410;2022-11-22T01:59:18;0.70;99.90
34542;DHT22;20784;51.332;12.410;2022-11-22T02:01:44;0.60;99.90
34542;DHT22;20784;51.332;12.410;2022-11-22T02:04:13;0.40;99.90
34542;DHT22;20784;51.332;12.410;2022-11-22T02:09:18;0.50;99.90
34542;DHT22;20784;51.332;12.410;2022-11-22T02:11:49;0.50;99.90
34542;DHT22;20784;51.332;12.410;2022-11-22T02:14:19;0.50;99.90
34542;DHT22;20784;51.332;12.410;2022-11-22T02:16:47;0.40;99.90
34542;DHT22;20784;51.332;12.410;2022-11-22T02:19:17;0.50;99.90
34542;DHT22;20784;51.332;12.410;2022-11-22T02:21:46;0.40;99.90
34542;DHT22;20784;51.332;12.410;2022-11-22T02:24:38;0.50;99.90
34542;DHT22;20784;51.332;12.410;2022-11-22T02:27:08;0.50;99.90
34542;DHT22;20784;51.332;12.410;2022-11-22T02:29:34;0.50;99.90
34542;DHT22;20784;51.332;12.410;2022-11-22T02:32:00;0.50;99.90
34542;DHT22;20784;51.332;12.410;2022-11-22T02:34:26;0.50;99.90
34542;DHT22;20784;51.332;12.410;2022-11-22T02:36:53;0.50;99.90
34542;DHT22;20784;51.332;12.410;2022-11-22T02:39:24;0.50;99.90
34542;DHT22;20784;51.332;12.410;2022-11-22T02:41:52;0.60;99.90
34542;DHT22;20784;51.332;12.410;2022-11-22T02:44:21;0.60;99.90
34542;DHT22;20784;51.332;12.410;2022-11-22T02:46:50;0.70;99.90
34542;DHT22;20784;51.332;12.410;2022-11-22T02:49:19;0.60;99.90
34542;DHT22;20784;51.332;12.410;2022-11-22T02:51:45;0.60;99.90
34542;DHT22;20784;51.332;12.410;2022-11-22T02:54:14;0.70;99.90
34542;DHT22;20784;51.332;12.410;2022-11-22T02:56:40;0.70;99.90
34542;DHT22;20784;51.332;12.410;2022-11-22T02:59:05;0.70;99.90
34542;DHT22;20784;51.332;12.410;2022-11-22T03:01:33;0.80;99.90
34542;DHT22;20784;51.332;12.410;2022-11-22T03:03:59;0.80;99.90
34542;DHT22;20784;51.332;12.410;2022-11-22T03:06:25;0.90;99.90
34542;DHT22;20784;51.332;12.410;2022-11-22T03:08:50;0.80;99.90
34542;DHT22;20784;51.332;12.410;2022-11-22T03:11:16;0.90;99.90
34542;DHT22;20784;51.332;12.410;2022-11-22T03:13:42;0.80;99.90
34542;DHT22;20784;51.332;12.410;2022-11-22T03:16:07;0.90;99.90
34542;DHT22;20784;51.332;12.410;2022-11-22T03:18:34;0.90;99.90
34542;DHT22;20784;51.332;12.410;2022-11-22T03:21:04;0.90;99.90
34542;DHT22;20784;51.332;12.410;2022-11-22T03:23:30;0.80;99.90
34542;DHT22;20784;51.332;12.410;2022-11-22T03:25:59;0.90;99.90
34542;DHT22;20784;51.332;12.410;2022-11-22T03:28:32;0.90;99.90
34542;DHT22;20784;51.332;12.410;2022-11-22T03:30:58;0.90;99.90
34542;DHT22;20784;51.332;12.410;2022-11-22T03:33:23;1.00;99.90
34542;DHT22;20784;51.332;12.410;2022-11-22T03:35:49;1.00;99.90
34542;DHT22;20784;51.332;12.410;2022-11-22T03:38:14;1.10;99.90
34542;DHT22;20784;51.332;12.410;2022-11-22T03:40:45;1.00;99.90
34542;DHT22;20784;51.332;12.410;2022-11-22T03:43:10;1.10;99.90
34542;DHT22;20784;51.332;12.410;2022-11-22T03:45:42;1.10;99.90
34542;DHT22;20784;51.332;12.410;2022-11-22T03:48:08;1.10;99.90
34542;DHT22;20784;51.332;12.410;2022-11-22T03:50:34;1.20;99.90
34542;DHT22;20784;51.332;12.410;2022-11-22T03:52:59;1.20;99.90
34542;DHT22;20784;51.332;12.410;2022-11-22T03:55:25;1.20;99.90
34542;DHT22;20784;51.332;12.410;2022-11-22T03:57:53;1.20;99.90
34542;DHT22;20784;51.332;12.410;2022-11-22T04:00:18;1.20;99.90
34542;DHT22;20784;51.332;12.410;2022-11-22T04:02:46;1.20;99.90
34542;DHT22;20784;51.332;12.410;2022-11-22T04:05:12;1.20;99.90
34542;DHT22;20784;51.332;12.410;2022-11-22T04:07:37;1.20;99.90
34542;DHT22;20784;51.332;12.410;2022-11-22T04:10:04;1.20;99.90
34542;DHT22;20784;51.332;12.410;2022-11-22T04:12:30;1.10;99.90
34542;DHT22;20784;51.332;12.410;2022-11-22T04:14:56;1.10;99.90
34542;DHT22;20784;51.332;12.410;2022-11-22T04:17:40;1.20;99.90
34542;DHT22;20784;51.332;12.410;2022-11-22T04:20:22;1.10;99.90
34542;DHT22;20784;51.332;12.410;2022-11-22T04:23:08;1.10;99.90
34542;DHT22;20784;51.332;12.410;2022-11-22T04:25:35;1.10;99.90
34542;DHT22;20784;51.332;12.410;2022-11-22T04:28:03;1.00;99.90
34542;DHT22;20784;51.332;12.410;2022-11-22T04:30:29;1.10;99.90
34542;DHT22;20784;51.332;12.410;2022-11-22T04:33:14;1.10;99.90
34542;DHT22;20784;51.332;12.410;2022-11-22T04:35:41;1.10;99.90
34542;DHT22;20784;51.332;12.410;2022-11-22T04:38:07;1.10;99.90
34542;DHT22;20784;51.332;12.410;2022-11-22T04:40:33;1.10;99.90
34542;DHT22;20784;51.332;12.410;2022-11-22T04:42:59;1.20;99.90
34542;DHT22;20784;51.332;12.410;2022-11-22T04:45:44;1.20;99.90
34542;DHT22;20784;51.332;12.410;2022-11-22T04:48:10;1.20;99.90
34542;DHT22;20784;51.332;12.410;2022-11-22T04:50:38;1.10;99.90
34542;DHT22;20784;51.332;12.410;2022-11-22T04:53:23;1.10;99.90
34542;DHT22;20784;51.332;12.410;2022-11-22T04:55:48;1.10;99.90
34542;DHT22;20784;51.332;12.410;2022-11-22T04:58:14;1.10;99.90
34542;DHT22;20784;51.332;12.410;2022-11-22T05:00:40;1.10;99.90
34542;DHT22;20784;51.332;12.410;2022-11-22T05:03:07;1.00;99.90
34542;DHT22;20784;51.332;12.410;2022-11-22T05:05:37;1.00;99.90
34542;DHT22;20784;51.332;12.410;2022-11-22T05:08:04;1.00;99.90
34542;DHT22;20784;51.332;12.410;2022-11-22T05:10:30;1.00;99.90
34542;DHT22;20784;51.332;12.410;2022-11-22T05:13:21;1.10;99.90
34542;DHT22;20784;51.332;12.410;2022-11-22T05:15:48;1.10;99.90
34542;DHT22;20784;51.332;12.410;2022-11-22T05:18:16;1.10;99.90
34542;DHT22;20784;51.332;12.410;2022-11-22T05:20:46;1.20;99.90
34542;DHT22;20784;51.332;12.410;2022-11-22T05:23:14;1.10;99.90
34542;DHT22;20784;51.332;12.410;2022-11-22T05:25:59;1.10;99.90
34542;DHT22;20784;51.332;12.410;2022-11-22T05:28:29;1.20;99.90
34542;DHT22;20784;51.332;12.410;2022-11-22T05:30:55;1.20;99.90
34542;DHT22;20784;51.332;12.410;2022-11-22T05:33:21;1.20;99.90
34542;DHT22;20784;51.332;12.410;2022-11-22T05:35:46;1.20;99.90
34542;DHT22;20784;51.332;12.410;2022-11-22T05:38:12;1.20;99.90
34542;DHT22;20784;51.332;12.410;2022-11-22T05:40:38;1.20;99.90
34542;DHT22;20784;51.332;12.410;2022-11-22T05:43:03;1.30;99.90
34542;DHT22;20784;51.332;12.410;2022-11-22T05:45:29;1.30;99.90
34542;DHT22;20784;51.332;12.410;2022-11-22T05:47:55;1.30;99.90
34542;DHT22;20784;51.332;12.410;2022-11-22T05:50:21;1.20;99.90
34542;DHT22;20784;51.332;12.410;2022-11-22T05:52:47;1.10;99.90
34542;DHT22;20784;51.332;12.410;2022-11-22T05:55:12;1.10;99.90
34542;DHT22;20784;51.332;12.410;2022-11-22T05:57:38;1.10;99.90
34542;DHT22;20784;51.332;12.410;2022-11-22T06:00:04;1.10;99.90
34542;DHT22;20784;51.332;12.410;2022-11-22T06:02:31;1.20;99.90
34542;DHT22;20784;51.332;12.410;2022-11-22T06:04:57;1.20;99.90
34542;DHT22;20784;51.332;12.410;2022-11-22T06:07:22;1.20;99.90
34542;DHT22;20784;51.332;12.410;2022-11-22T06:09:48;1.20;99.90
34542;DHT22;20784;51.332;12.410;2022-11-22T06:12:14;1.20;99.90
34542;DHT22;20784;51.332;12.410;2022-11-22T06:14:39;1.20;99.90
34542;DHT22;20784;51.332;12.410;2022-11-22T06:17:08;1.20;99.90
34542;DHT22;20784;51.332;12.410;2022-11-22T06:19:34;1.30;99.90
34542;DHT22;20784;51.332;12.410;2022-11-22T06:21:59;1.30;99.90
34542;DHT22;20784;51.332;12.410;2022-11-22T06:24:25;1.40;99.90
34542;DHT22;20784;51.332;12.410;2022-11-22T06:26:50;1.30;99.90
34542;DHT22;20784;51.332;12.410;2022-11-22T06:29:16;1.20;99.90
34542;DHT22;20784;51.332;12.410;2022-11-22T06:31:42;1.30;99.90
34542;DHT22;20784;51.332;12.410;2022-11-22T06:34:07;1.30;99.90
34542;DHT22;20784;51.332;12.410;2022-11-22T06:36:33;1.40;99.90
34542;DHT22;20784;51.332;12.410;2022-11-22T06:38:59;1.40;99.90
34542;DHT22;20784;51.332;12.410;2022-11-22T06:41:31;1.50;99.90
34542;DHT22;20784;51.332;12.410;2022-11-22T06:43:57;1.40;99.90
34542;DHT22;20784;51.332;12.410;2022-11-22T06:46:23;1.50;99.90
34542;DHT22;20784;51.332;12.410;2022-11-22T06:48:50;1.40;99.90
34542;DHT22;20784;51.332;12.410;2022-11-22T06:51:21;1.40;99.90
34542;DHT22;20784;51.332;12.410;2022-11-22T06:53:48;1.50;99.90
34542;DHT22;20784;51.332;12.410;2022-11-22T06:56:17;1.50;99.90
34542;DHT22;20784;51.332;12.410;2022-11-22T06:58:43;1.40;99.90
34542;DHT22;20784;51.332;12.410;2022-11-22T07:01:16;1.40;99.90
34542;DHT22;20784;51.332;12.410;2022-11-22T07:03:43;1.50;99.90
34542;DHT22;20784;51.332;12.410;2022-11-22T07:06:10;1.50;99.90
34542;DHT22;20784;51.332;12.410;2022-11-22T07:08:37;1.50;99.90
34542;DHT22;20784;51.332;12.410;2022-11-22T07:11:09;1.40;99.90
34542;DHT22;20784;51.332;12.410;2022-11-22T07:13:35;1.40;99.90
34542;DHT22;20784;51.332;12.410;2022-11-22T07:16:03;1.40;99.90
34542;DHT22;20784;51.332;12.410;2022-11-22T07:18:29;1.30;99.90
34542;DHT22;20784;51.332;12.410;2022-11-22T07:21:05;1.40;99.90
34542;DHT22;20784;51.332;12.410;2022-11-22T07:23:34;1.40;99.90
34542;DHT22;20784;51.332;12.410;2022-11-22T07:26:00;1.60;99.90
34542;DHT22;20784;51.332;12.410;2022-11-22T07:28:26;1.70;99.90
34542;DHT22;20784;51.332;12.410;2022-11-22T07:30:52;1.70;99.90
34542;DHT22;20784;51.332;12.410;2022-11-22T07:33:18;1.80;99.90
34542;DHT22;20784;51.332;12.410;2022-11-22T07:35:43;1.80;99.90
34542;DHT22;20784;51.332;12.410;2022-11-22T07:38:09;1.90;99.90
34542;DHT22;20784;51.332;12.410;2022-11-22T07:40:35;2.00;99.90
34542;DHT22;20784;51.332;12.410;2022-11-22T07:43:01;2.00;99.90
34542;DHT22;20784;51.332;12.410;2022-11-22T07:45:26;2.20;99.90
34542;DHT22;20784;51.332;12.410;2022-11-22T07:47:52;2.20;99.90
34542;DHT22;20784;51.332;12.410;2022-11-22T07:50:20;2.30;99.90
34542;DHT22;20784;51.332;12.410;2022-11-22T07:52:46;2.50;99.90
34542;DHT22;20784;51.332;12.410;2022-11-22T07:55:11;2.90;99.90
34542;DHT22;20784;51.332;12.410;2022-11-22T07:57:40;3.40;99.90
34542;DHT22;20784;51.332;12.410;2022-11-22T08:00:06;3.80;99.90
34542;DHT22;20784;51.332;12.410;2022-11-22T08:02:32;4.10;99.90
34542;DHT22;20784;51.332;12.410;2022-11-22T08:04:57;4.30;99.90
34542;DHT22;20784;51.332;12.410;2022-11-22T08:07:23;4.30;99.90
34542;DHT22;20784;51.332;12.410;2022-11-22T08:09:49;4.50;99.90
34542;DHT22;20784;51.332;12.410;2022-11-22T08:12:14;4.70;99.90
34542;DHT22;20784;51.332;12.410;2022-11-22T08:14:40;5.10;99.90
34542;DHT22;20784;51.332;12.410;2022-11-22T08:17:05;5.40;93.20
34542;DHT22;20784;51.332;12.410;2022-11-22T08:19:31;5.90;70.40
34542;DHT22;20784;51.332;12.410;2022-11-22T08:22:00;6.40;41.10
34542;DHT22;20784;51.332;12.410;2022-11-22T08:24:28;6.60;2.70
34542;DHT22;20784;51.332;12.410;2022-11-22T08:26:57;6.70;1.00
34542;DHT22;20784;51.332;12.410;2022-11-22T08:29:22;6.90;1.00
34542;DHT22;20784;51.332;12.410;2022-11-22T08:31:48;7.20;1.00
34542;DHT22;20784;51.332;12.410;2022-11-22T08:34:14;7.00;1.00
34542;DHT22;20784;51.332;12.410;2022-11-22T08:36:39;6.80;1.00
34542;DHT22;20784;51.332;12.410;2022-11-22T08:39:05;6.70;1.00
34542;DHT22;20784;51.332;12.410;2022-11-22T08:41:31;6.70;1.00
34542;DHT22;20784;51.332;12.410;2022-11-22T08:43:57;6.40;1.00
34542;DHT22;20784;51.332;12.410;2022-11-22T08:46:22;6.20;24.60
34542;DHT22;20784;51.332;12.410;2022-11-22T08:48:51;6.00;25.50
34542;DHT22;20784;51.332;12.410;2022-11-22T08:51:17;5.60;45.90
34542;DHT22;20784;51.332;12.410;2022-11-22T08:53:43;5.30;69.50
34542;DHT22;20784;51.332;12.410;2022-11-22T08:56:13;5.00;95.20
34542;DHT22;20784;51.332;12.410;2022-11-22T08:58:39;4.80;99.90
34542;DHT22;20784;51.332;12.410;2022-11-22T09:01:10;4.70;99.90
34542;DHT22;20784;51.332;12.410;2022-11-22T09:03:36;4.70;99.90
34542;DHT22;20784;51.332;12.410;2022-11-22T09:06:07;4.60;99.90
34542;DHT22;20784;51.332;12.410;2022-11-22T09:08:34;4.40;99.90
34542;DHT22;20784;51.332;12.410;2022-11-22T09:11:10;4.20;99.90
34542;DHT22;20784;51.332;12.410;2022-11-22T09:13:36;4.10;99.90
34542;DHT22;20784;51.332;12.410;2022-11-22T09:16:19;4.00;99.90
34542;DHT22;20784;51.332;12.410;2022-11-22T09:18:45;3.90;99.90
34542;DHT22;20784;51.332;12.410;2022-11-22T09:21:23;3.80;99.90
34542;DHT22;20784;51.332;12.410;2022-11-22T09:23:49;3.80;99.90
34542;DHT22;20784;51.332;12.410;2022-11-22T09:26:23;3.90;99.90
34542;DHT22;20784;51.332;12.410;2022-11-22T09:28:56;3.90;99.90
34542;DHT22;20784;51.332;12.410;2022-11-22T09:31:35;4.10;99.90
34542;DHT22;20784;51.332;12.410;2022-11-22T09:34:00;4.50;99.90
34542;DHT22;20784;51.332;12.410;2022-11-22T09:36:28;4.50;99.90
34542;DHT22;20784;51.332;12.410;2022-11-22T09:38:55;4.50;99.90
34542;DHT22;20784;51.332;12.410;2022-11-22T09:44:41;4.50;99.90
34542;DHT22;20784;51.332;12.410;2022-11-22T09:47:37;4.40;99.90
34542;DHT22;20784;51.332;12.410;2022-11-22T09:50:38;4.40;99.90
34542;DHT22;20784;51.332;12.410;2022-11-22T09:53:24;4.40;99.90
34542;DHT22;20784;51.332;12.410;2022-11-22T09:55:55;4.20;99.90
34542;DHT22;20784;51.332;12.410;2022-11-22T10:01:02;4.20;99.90
34542;DHT22;20784;51.332;12.410;2022-11-22T10:03:51;4.40;99.90
34542;DHT22;20784;51.332;12.410;2022-11-22T10:06:48;4.30;99.90
34542;DHT22;20784;51.332;12.410;2022-11-22T10:09:33;4.40;99.90
34542;DHT22;20784;51.332;12.410;2022-11-22T10:12:19;4.40;99.90
34542;DHT22;20784;51.332;12.410;2022-11-22T10:15:11;4.50;99.90
34542;DHT22;20784;51.332;12.410;2022-11-22T10:17:56;4.50;99.90
34542;DHT22;20784;51.332;12.410;2022-11-22T10:20:36;4.40;99.90
34542;DHT22;20784;51.332;12.410;2022-11-22T10:23:24;4.30;99.90
34542;DHT22;20784;51.332;12.410;2022-11-22T10:25:55;4.30;99.90
34542;DHT22;20784;51.332;12.410;2022-11-22T10:28:25;4.20;99.90
34542;DHT22;20784;51.332;12.410;2022-11-22T10:30:58;4.10;99.90
34542;DHT22;20784;51.332;12.410;2022-11-22T10:33:42;4.20;99.90
34542;DHT22;20784;51.332;12.410;2022-11-22T10:45:11;4.30;99.90
34542;DHT22;20784;51.332;12.410;2022-11-22T10:48:00;4.30;99.90
34542;DHT22;20784;51.332;12.410;2022-11-22T10:53:53;4.40;99.90
34542;DHT22;20784;51.332;12.410;2022-11-22T11:01:51;4.50;99.90
34542;DHT22;20784;51.332;12.410;2022-11-22T11:04:21;4.70;99.90
34542;DHT22;20784;51.332;12.410;2022-11-22T11:06:53;4.50;99.90
34542;DHT22;20784;51.332;12.410;2022-11-22T11:09:40;4.40;99.90
34542;DHT22;20784;51.332;12.410;2022-11-22T11:17:47;4.50;99.90
34542;DHT22;20784;51.332;12.410;2022-11-22T11:20:25;4.50;99.90
34542;DHT22;20784;51.332;12.410;2022-11-22T11:22:51;4.70;99.90
34542;DHT22;20784;51.332;12.410;2022-11-22T11:28:02;4.70;99.90
34542;DHT22;20784;51.332;12.410;2022-11-22T11:30:43;4.80;99.90
34542;DHT22;20784;51.332;12.410;2022-11-22T11:33:19;4.90;99.90
34542;DHT22;20784;51.332;12.410;2022-11-22T11:35:46;4.90;99.90
34542;DHT22;20784;51.332;12.410;2022-11-22T11:38:36;5.00;99.90
34542;DHT22;20784;51.332;12.410;2022-11-22T11:41:24;5.00;99.90
34542;DHT22;20784;51.332;12.410;2022-11-22T11:43:55;5.20;99.90
34542;DHT22;20784;51.332;12.410;2022-11-22T11:46:23;5.10;99.90
34542;DHT22;20784;51.332;12.410;2022-11-22T11:48:51;5.20;99.90
34542;DHT22;20784;51.332;12.410;2022-11-22T11:51:38;5.10;99.90
34542;DHT22;20784;51.332;12.410;2022-11-22T11:54:18;5.20;99.90
34542;DHT22;20784;51.332;12.410;2022-11-22T11:56:57;5.30;99.90
34542;DHT22;20784;51.332;12.410;2022-11-22T12:05:01;5.40;99.90
34542;DHT22;20784;51.332;12.410;2022-11-22T12:09:59;5.40;99.90
34542;DHT22;20784;51.332;12.410;2022-11-22T12:12:44;5.40;99.90
34542;DHT22;20784;51.332;12.410;2022-11-22T12:17:56;5.40;99.90
34542;DHT22;20784;51.332;12.410;2022-11-22T12:23:39;5.60;99.90
34542;DHT22;20784;51.332;12.410;2022-11-22T12:26:08;5.70;99.90
34542;DHT22;20784;51.332;12.410;2022-11-22T12:28:34;5.60;99.90
34542;DHT22;20784;51.332;12.410;2022-11-22T12:33:48;5.80;99.90
34542;DHT22;20784;51.332;12.410;2022-11-22T12:36:16;5.80;99.90
34542;DHT22;20784;51.332;12.410;2022-11-22T12:38:44;5.80;99.90
34542;DHT22;20784;51.332;12.410;2022-11-22T12:41:13;5.80;99.90
34542;DHT22;20784;51.332;12.410;2022-11-22T12:46:21;5.90;99.90
34542;DHT22;20784;51.332;12.410;2022-11-22T12:48:57;6.00;99.90
34542;DHT22;20784;51.332;12.410;2022-11-22T12:51:51;6.00;99.90
34542;DHT22;20784;51.332;12.410;2022-11-22T12:57:20;6.00;99.90
34542;DHT22;20784;51.332;12.410;2022-11-22T13:05:16;6.10;99.90
34542;DHT22;20784;51.332;12.410;2022-11-22T13:10:23;6.10;99.90
34542;DHT22;20784;51.332;12.410;2022-11-22T13:12:51;6.20;99.90
34542;DHT22;20784;51.332;12.410;2022-11-22T13:15:26;6.20;99.90
34542;DHT22;20784;51.332;12.410;2022-11-22T13:17:52;6.20;99.90
34542;DHT22;20784;51.332;12.410;2022-11-22T13:20:20;6.20;99.90
34542;DHT22;20784;51.332;12.410;2022-11-22T13:28:24;6.30;99.90
34542;DHT22;20784;51.332;12.410;2022-11-22T13:31:12;6.20;99.90
34542;DHT22;20784;51.332;12.410;2022-11-22T13:33:56;6.10;99.90
34542;DHT22;20784;51.332;12.410;2022-11-22T13:38:54;6.10;99.90
34542;DHT22;20784;51.332;12.410;2022-11-22T13:41:27;6.20;99.90
34542;DHT22;20784;51.332;12.410;2022-11-22T13:43:57;6.20;99.90
34542;DHT22;20784;51.332;12.410;2022-11-22T14:05:37;6.40;99.90
34542;DHT22;20784;51.332;12.410;2022-11-22T14:08:04;6.50;99.90
34542;DHT22;20784;51.332;12.410;2022-11-22T14:16:23;6.40;99.90
34542;DHT22;20784;51.332;12.410;2022-11-22T14:18:59;6.40;99.90
34542;DHT22;20784;51.332;12.410;2022-11-22T14:24:21;6.40;99.90
34542;DHT22;20784;51.332;12.410;2022-11-22T14:32:25;6.20;99.90
34542;DHT22;20784;51.332;12.410;2022-11-22T14:47:50;6.10;99.90
34542;DHT22;20784;51.332;12.410;2022-11-22T14:53:22;6.00;99.90
34542;DHT22;20784;51.332;12.410;2022-11-22T14:55:53;5.90;99.90
34542;DHT22;20784;51.332;12.410;2022-11-22T14:58:22;5.90;99.90
34542;DHT22;20784;51.332;12.410;2022-11-22T15:01:23;5.90;99.90
34542;DHT22;20784;51.332;12.410;2022-11-22T15:04:13;5.90;99.90
34542;DHT22;20784;51.332;12.410;2022-11-22T15:17:51;5.70;99.90
34542;DHT22;20784;51.332;12.410;2022-11-22T15:23:11;5.70;99.90
34542;DHT22;20784;51.332;12.410;2022-11-22T15:25:38;5.70;99.90
34542;DHT22;20784;51.332;12.410;2022-11-22T15:28:08;5.70;99.90
34542;DHT22;20784;51.332;12.410;2022-11-22T15:30:38;5.60;99.90
34542;DHT22;20784;51.332;12.410;2022-11-22T15:38:39;5.60;99.90
34542;DHT22;20784;51.332;12.410;2022-11-22T15:41:19;5.60;99.90
34542;DHT22;20784;51.332;12.410;2022-11-22T15:43:49;5.60;99.90
34542;DHT22;20784;51.332;12.410;2022-11-22T15:46:16;5.50;99.90
34542;DHT22;20784;51.332;12.410;2022-11-22T15:48:46;5.70;99.90
34542;DHT22;20784;51.332;12.410;2022-11-22T15:53:39;5.60;99.90
34542;DHT22;20784;51.332;12.410;2022-11-22T15:56:13;5.70;99.90
34542;DHT22;20784;51.332;12.410;2022-11-22T15:58:51;5.70;99.90
34542;DHT22;20784;51.332;12.410;2022-11-22T16:01:18;5.70;99.90
34542;DHT22;20784;51.332;12.410;2022-11-22T16:03:55;5.80;99.90
34542;DHT22;20784;51.332;12.410;2022-11-22T16:06:28;5.70;99.90
34542;DHT22;20784;51.332;12.410;2022-11-22T16:08:59;5.70;99.90
34542;DHT22;20784;51.332;12.410;2022-11-22T16:11:32;5.70;99.90
34542;DHT22;20784;51.332;12.410;2022-11-22T16:13:59;5.80;99.90
34542;DHT22;20784;51.332;12.410;2022-11-22T16:16:32;5.70;99.90
34542;DHT22;20784;51.332;12.410;2022-11-22T16:19:20;5.80;99.90
34542;DHT22;20784;51.332;12.410;2022-11-22T16:21:56;5.80;99.90
34542;DHT22;20784;51.332;12.410;2022-11-22T16:24:29;5.80;99.90
34542;DHT22;20784;51.332;12.410;2022-11-22T16:26:59;5.80;99.90
34542;DHT22;20784;51.332;12.410;2022-11-22T16:29:32;5.90;99.90
34542;DHT22;20784;51.332;12.410;2022-11-22T16:32:00;5.80;99.90
34542;DHT22;20784;51.332;12.410;2022-11-22T16:34:25;5.80;99.90
34542;DHT22;20784;51.332;12.410;2022-11-22T16:36:51;5.70;99.90
34542;DHT22;20784;51.332;12.410;2022-11-22T16:39:17;5.80;99.90
34542;DHT22;20784;51.332;12.410;2022-11-22T16:41:42;5.70;99.90
34542;DHT22;20784;51.332;12.410;2022-11-22T16:44:12;5.70;99.90
34542;DHT22;20784;51.332;12.410;2022-11-22T16:46:41;5.80;99.90
34542;DHT22;20784;51.332;12.410;2022-11-22T16:49:20;5.80;99.90
34542;DHT22;20784;51.332;12.410;2022-11-22T16:51:50;5.80;99.90
34542;DHT22;20784;51.332;12.410;2022-11-22T16:54:19;5.70;99.90
34542;DHT22;20784;51.332;12.410;2022-11-22T16:56:45;5.80;99.90
34542;DHT22;20784;51.332;12.410;2022-11-22T16:59:13;5.70;99.90
34542;DHT22;20784;51.332;12.410;2022-11-22T17:01:41;5.60;99.90
34542;DHT22;20784;51.332;12.410;2022-11-22T17:04:19;5.60;99.90
34542;DHT22;20784;51.332;12.410;2022-11-22T17:06:45;5.60;99.90
34542;DHT22;20784;51.332;12.410;2022-11-22T17:09:11;5.60;99.90
34542;DHT22;20784;51.332;12.410;2022-11-22T17:11:37;5.70;99.90
34542;DHT22;20784;51.332;12.410;2022-11-22T17:14:02;5.60;99.90
34542;DHT22;20784;51.332;12.410;2022-11-22T17:16:28;5.60;99.90
34542;DHT22;20784;51.332;12.410;2022-11-22T17:18:54;5.60;99.90
34542;DHT22;20784;51.332;12.410;2022-11-22T17:21:28;5.60;99.90
34542;DHT22;20784;51.332;12.410;2022-11-22T17:23:55;5.60;99.90
34542;DHT22;20784;51.332;12.410;2022-11-22T17:26:25;5.60;99.90
34542;DHT22;20784;51.332;12.410;2022-11-22T17:28:51;5.50;99.90
34542;DHT22;20784;51.332;12.410;2022-11-22T17:31:18;5.50;99.90
34542;DHT22;20784;51.332;12.410;2022-11-22T17:33:51;5.40;99.90
34542;DHT22;20784;51.332;12.410;2022-11-22T17:38:51;5.40;99.90
34542;DHT22;20784;51.332;12.410;2022-11-22T17:41:17;5.30;99.90
34542;DHT22;20784;51.332;12.410;2022-11-22T17:43:43;5.30;99.90
34542;DHT22;20784;51.332;12.410;2022-11-22T17:46:09;5.30;99.90
34542;DHT22;20784;51.332;12.410;2022-11-22T17:48:35;5.40;99.90
34542;DHT22;20784;51.332;12.410;2022-11-22T17:51:17;5.30;99.90
34542;DHT22;20784;51.332;12.410;2022-11-22T17:53:43;5.30;99.90
34542;DHT22;20784;51.332;12.410;2022-11-22T17:56:09;5.20;99.90
34542;DHT22;20784;51.332;12.410;2022-11-22T17:58:35;5.20;99.90
34542;DHT22;20784;51.332;12.410;2022-11-22T18:01:06;5.20;99.90
34542;DHT22;20784;51.332;12.410;2022-11-22T18:03:32;5.20;99.90
34542;DHT22;20784;51.332;12.410;2022-11-22T18:05:58;5.00;99.90
34542;DHT22;20784;51.332;12.410;2022-11-22T18:08:24;5.20;99.90
34542;DHT22;20784;51.332;12.410;2022-11-22T18:10:53;5.20;99.90
34542;DHT22;20784;51.332;12.410;2022-11-22T18:13:20;5.10;99.90